Time;durP1;ratioP1;P1;durP2;ratioP2;P2;SDS_P1;SDS_P2;PMS_P1;PMS_P2;Temp;Humidity;BMP_temperature;BMP_pressure;BME280_temperature;BME280_humidity;BME280_pressure;Samples;Min_cycle;Max_cycle;Signal;HPM_P1;HPM_P2
2022/08/16 00:00:37;;;;;;;7.38;6.72;;;18.40;1.00;;;;;;5097167;28;20543;-51
2022/08/16 00:03:05;;;;;;;8.87;7.20;;;18.40;1.00;;;;;;5097917;28;20301;-54
2022/08/16 00:05:39;;;;;;;7.87;7.27;;;18.40;1.00;;;;;;5097895;28;20466;-50
2022/08/16 00:08:06;;;;;;;8.40;7.70;;;18.40;1.00;;;;;;5097715;28;20577;-49
2022/08/16 00:10:34;;;;;;;7.50;6.87;;;18.40;1.00;;;;;;5097068;28;20522;-53
2022/08/16 00:13:07;;;;;;;8.20;7.40;;;18.40;1.00;;;;;;5096575;28;20457;-50
2022/08/16 00:15:40;;;;;;;7.57;6.37;;;18.30;1.00;;;;;;5091144;28;20792;-51
2022/08/16 00:18:09;;;;;;;7.33;6.80;;;18.30;1.00;;;;;;5096615;28;20567;-48
2022/08/16 00:20:38;;;;;;;7.27;6.57;;;18.30;1.00;;;;;;5096038;28;20483;-51
2022/08/16 00:23:05;;;;;;;7.83;7.13;;;18.20;1.00;;;;;;5097320;28;20460;-54
2022/08/16 00:25:33;;;;;;;6.90;6.30;;;18.20;1.00;;;;;;5096398;28;20771;-48
2022/08/16 00:28:02;;;;;;;7.00;6.50;;;18.20;1.00;;;;;;5096921;28;20757;-51
2022/08/16 00:30:29;;;;;;;7.60;7.00;;;18.30;1.00;;;;;;5097477;28;20829;-51
2022/08/16 00:33:00;;;;;;;7.97;7.30;;;18.30;1.00;;;;;;5096937;28;20446;-50
2022/08/16 00:35:36;;;;;;;7.47;6.77;;;18.30;1.00;;;;;;5096246;28;20488;-54
2022/08/16 00:38:08;;;;;;;8.00;6.57;;;18.30;1.00;;;;;;5096831;28;20490;-54
2022/08/16 00:40:39;;;;;;;7.20;6.60;;;18.40;1.00;;;;;;5097765;28;20795;-54
2022/08/16 00:43:11;;;;;;;7.73;7.13;;;18.30;1.00;;;;;;5097413;28;20514;-53
2022/08/16 00:45:46;;;;;;;6.80;6.10;;;18.30;1.00;;;;;;5096565;28;20886;-50
2022/08/16 00:48:15;;;;;;;7.73;7.03;;;18.30;1.00;;;;;;5095662;28;20477;-51
2022/08/16 00:50:47;;;;;;;8.20;7.27;;;18.30;1.00;;;;;;5096614;28;20460;-52
2022/08/16 00:53:16;;;;;;;9.20;7.43;;;18.20;1.00;;;;;;5097621;28;20460;-49
2022/08/16 00:55:48;;;;;;;6.53;5.67;;;18.20;1.00;;;;;;5096659;28;20494;-49
2022/08/16 00:58:19;;;;;;;9.93;7.27;;;18.20;1.00;;;;;;5097186;28;20559;-51
2022/08/16 01:00:47;;;;;;;6.07;5.57;;;18.20;1.00;;;;;;5095712;28;20443;-48
2022/08/16 01:03:17;;;;;;;7.83;7.23;;;18.20;1.00;;;;;;5097416;28;20562;-50
2022/08/16 01:05:48;;;;;;;7.60;6.80;;;18.20;1.00;;;;;;5096128;28;20460;-51
2022/08/16 01:08:19;;;;;;;7.27;6.67;;;18.20;1.00;;;;;;5097092;28;20435;-48
2022/08/16 01:10:48;;;;;;;9.80;7.77;;;18.20;1.00;;;;;;5096001;28;20464;-49
2022/08/16 01:13:23;;;;;;;8.00;7.30;;;18.10;1.00;;;;;;5101330;28;20765;-50
2022/08/16 01:15:55;;;;;;;8.17;7.47;;;18.10;1.00;;;;;;5100324;28;20488;-51
2022/08/16 01:18:31;;;;;;;7.07;6.47;;;18.00;1.00;;;;;;5101050;28;20776;-53
2022/08/16 01:21:04;;;;;;;7.03;6.43;;;18.00;1.00;;;;;;5100366;28;20517;-49
2022/08/16 01:23:45;;;;;;;6.40;5.70;;;18.00;1.00;;;;;;5100906;28;20534;-50
2022/08/16 01:26:13;;;;;;;6.93;6.33;;;17.90;1.00;;;;;;5100545;28;20487;-56
2022/08/16 01:28:41;;;;;;;8.13;7.43;;;18.00;1.00;;;;;;5100576;28;20456;-48
2022/08/16 01:31:10;;;;;;;7.47;6.40;;;18.00;1.00;;;;;;5099822;28;20816;-54
2022/08/16 01:33:40;;;;;;;6.73;6.23;;;18.00;1.00;;;;;;5100369;28;20460;-54
2022/08/16 01:36:10;;;;;;;7.43;6.50;;;17.90;1.00;;;;;;5100715;28;20795;-55
2022/08/16 01:38:40;;;;;;;8.00;7.30;;;17.90;1.00;;;;;;5100282;28;20554;-55
2022/08/16 01:41:16;;;;;;;7.60;6.80;;;18.00;1.00;;;;;;5100492;28;20468;-54
2022/08/16 01:43:48;;;;;;;7.10;6.50;;;18.00;1.00;;;;;;5100215;28;20513;-48
2022/08/16 01:46:26;;;;;;;7.00;6.40;;;18.00;1.00;;;;;;5100357;28;20547;-49
2022/08/16 01:48:56;;;;;;;7.00;6.17;;;18.00;1.00;;;;;;5099695;28;20475;-53
2022/08/16 01:51:26;;;;;;;7.00;6.47;;;17.90;1.00;;;;;;5100803;28;20456;-57
2022/08/16 01:53:54;;;;;;;7.50;6.80;;;18.00;1.00;;;;;;5100400;28;20495;-56
2022/08/16 01:56:24;;;;;;;7.27;6.57;;;18.00;1.00;;;;;;5100071;28;20499;-52
2022/08/16 01:58:53;;;;;;;7.37;6.67;;;18.00;1.00;;;;;;5099427;28;20514;-51
2022/08/16 02:01:20;;;;;;;7.50;6.50;;;18.10;1.00;;;;;;5100431;28;20479;-56
2022/08/16 02:03:47;;;;;;;6.90;6.30;;;18.10;1.00;;;;;;5099624;28;20558;-52
2022/08/16 02:06:15;;;;;;;6.57;6.07;;;18.10;1.00;;;;;;5100087;28;20547;-54
2022/08/16 02:08:42;;;;;;;7.10;6.50;;;18.10;1.00;;;;;;5099599;28;20492;-52
2022/08/16 02:11:10;;;;;;;7.13;6.53;;;18.00;1.00;;;;;;5100163;28;20841;-51
2022/08/16 02:13:40;;;;;;;7.00;6.40;;;18.00;1.00;;;;;;5099772;28;20464;-53
2022/08/16 02:16:08;;;;;;;6.90;6.37;;;17.90;1.00;;;;;;5098841;28;20488;-53
2022/08/16 02:18:36;;;;;;;7.17;6.33;;;17.90;1.00;;;;;;5099956;28;20492;-52
2022/08/16 02:21:06;;;;;;;7.83;6.40;;;17.90;1.00;;;;;;5098505;28;20464;-53
2022/08/16 02:23:36;;;;;;;6.23;5.73;;;17.90;1.00;;;;;;5098324;28;20464;-55
2022/08/16 02:26:05;;;;;;;6.23;5.70;;;17.90;1.00;;;;;;5098970;28;20453;-53
2022/08/16 02:28:32;;;;;;;7.00;6.37;;;17.90;1.00;;;;;;5099637;28;20460;-52
2022/08/16 02:31:06;;;;;;;6.83;5.83;;;17.90;1.00;;;;;;5099593;28;20555;-52
2022/08/16 02:33:34;;;;;;;6.60;6.00;;;17.90;1.00;;;;;;5099497;28;20538;-54
2022/08/16 02:36:01;;;;;;;7.23;6.63;;;18.00;1.00;;;;;;5099568;28;20488;-56
2022/08/16 02:38:29;;;;;;;7.17;6.57;;;17.90;1.00;;;;;;5099628;28;20575;-54
2022/08/16 02:40:58;;;;;;;6.07;5.57;;;17.90;1.00;;;;;;5098358;28;20460;-49
2022/08/16 02:43:27;;;;;;;6.70;6.10;;;17.80;1.00;;;;;;5099458;28;20567;-50
2022/08/16 02:45:55;;;;;;;7.93;7.13;;;17.90;1.00;;;;;;5098559;28;20498;-49
2022/08/16 02:48:25;;;;;;;7.23;6.53;;;17.80;1.00;;;;;;5098951;28;20540;-56
2022/08/16 02:50:52;;;;;;;7.50;6.90;;;17.80;1.00;;;;;;5095939;28;20456;-57
2022/08/16 02:53:20;;;;;;;7.90;6.90;;;17.70;1.00;;;;;;5099316;28;20575;-57
2022/08/16 02:55:47;;;;;;;8.10;7.50;;;17.70;1.00;;;;;;5098557;28;20843;-53
2022/08/16 02:58:17;;;;;;;8.07;7.37;;;17.80;1.00;;;;;;5098958;28;20559;-53
2022/08/16 03:00:45;;;;;;;7.60;7.00;;;17.70;1.00;;;;;;5098728;28;20467;-50
2022/08/16 03:03:12;;;;;;;8.00;6.27;;;17.70;1.00;;;;;;5098657;28;20490;-54
2022/08/16 03:05:41;;;;;;;6.87;6.27;;;17.60;1.00;;;;;;5098922;28;20457;-55
2022/08/16 03:08:09;;;;;;;6.80;6.30;;;17.50;1.00;;;;;;5098820;28;20460;-53
2022/08/16 03:10:36;;;;;;;6.70;6.10;;;17.50;6.80;;;;;;5098923;28;20462;-57
2022/08/16 03:13:04;;;;;;;8.93;6.40;;;17.50;18.60;;;;;;5098427;28;20435;-53
2022/08/16 03:15:32;;;;;;;12.30;6.77;;;17.50;33.70;;;;;;5097824;28;20485;-53
2022/08/16 03:18:00;;;;;;;7.83;7.13;;;17.50;31.80;;;;;;5078152;28;20917;-51
2022/08/16 03:20:28;;;;;;;7.67;7.07;;;17.50;24.20;;;;;;5077952;28;20518;-55
2022/08/16 03:22:56;;;;;;;7.60;7.00;;;17.50;17.20;;;;;;5079096;28;20501;-48
2022/08/16 03:25:29;;;;;;;6.77;6.17;;;17.50;15.50;;;;;;5077742;28;20519;-51
2022/08/16 03:27:56;;;;;;;7.37;6.67;;;17.40;13.70;;;;;;5096545;28;20795;-49
2022/08/16 03:30:26;;;;;;;7.33;6.70;;;17.40;25.70;;;;;;5098347;28;20471;-55
2022/08/16 03:32:54;;;;;;;7.37;6.63;;;17.40;33.80;;;;;;5097968;28;20457;-49
2022/08/16 03:35:25;;;;;;;7.40;6.70;;;17.40;43.10;;;;;;5098116;28;20506;-57
2022/08/16 03:37:57;;;;;;;7.50;6.70;;;17.40;56.50;;;;;;5098372;28;20522;-54
2022/08/16 03:40:25;;;;;;;7.60;6.90;;;17.30;43.10;;;;;;5097621;28;20546;-54
2022/08/16 03:42:53;;;;;;;7.63;6.80;;;17.20;95.30;;;;;;5096793;28;20541;-57
2022/08/16 03:45:20;;;;;;;7.50;6.33;;;17.10;99.90;;;;;;5097642;28;20511;-52
2022/08/16 03:47:49;;;;;;;7.23;6.57;;;17.10;99.90;;;;;;5098029;28;20877;-53
2022/08/16 03:50:17;;;;;;;7.47;6.60;;;17.20;99.90;;;;;;5097733;28;20521;-58
2022/08/16 03:52:45;;;;;;;7.07;6.37;;;17.20;99.90;;;;;;5097710;28;20457;-58
2022/08/16 03:55:14;;;;;;;7.23;6.60;;;17.20;99.90;;;;;;5097162;28;20952;-53
2022/08/16 03:57:42;;;;;;;7.63;6.97;;;17.20;99.90;;;;;;5097271;28;20467;-52
2022/08/16 04:00:13;;;;;;;6.53;5.90;;;17.20;99.90;;;;;;5116125;28;20463;-54
2022/08/16 04:02:41;;;;;;;9.33;6.37;;;17.30;99.90;;;;;;5117932;28;20496;-57
2022/08/16 04:05:16;;;;;;;7.40;6.80;;;17.40;98.50;;;;;;5101561;28;20457;-56
2022/08/16 04:07:47;;;;;;;7.00;6.10;;;17.30;63.70;;;;;;5097175;28;20911;-51
2022/08/16 04:10:16;;;;;;;7.57;6.77;;;17.20;77.90;;;;;;5097267;28;20465;-55
2022/08/16 04:12:45;;;;;;;6.93;6.33;;;17.20;71.10;;;;;;5097908;28;20761;-51
2022/08/16 04:15:18;;;;;;;9.93;7.47;;;17.10;77.30;;;;;;5097144;28;20591;-51
2022/08/16 04:17:45;;;;;;;7.13;6.43;;;17.20;98.70;;;;;;5097347;28;20964;-56
2022/08/16 04:20:16;;;;;;;7.60;6.80;;;17.20;99.70;;;;;;5097202;28;20495;-50
2022/08/16 04:22:49;;;;;;;6.40;5.80;;;17.10;99.90;;;;;;5097110;28;20724;-51
2022/08/16 04:25:18;;;;;;;7.33;6.30;;;17.00;99.90;;;;;;5096920;28;20831;-55
2022/08/16 04:27:45;;;;;;;6.80;6.20;;;17.00;99.90;;;;;;5096993;28;20465;-54
2022/08/16 04:30:15;;;;;;;6.83;6.13;;;16.90;99.90;;;;;;5096428;28;20547;-52
2022/08/16 04:32:43;;;;;;;7.20;6.17;;;16.90;99.90;;;;;;5095972;28;20483;-52
2022/08/16 04:35:16;;;;;;;6.83;6.13;;;17.00;99.90;;;;;;5094750;28;20735;-55
2022/08/16 04:37:43;;;;;;;7.03;6.30;;;17.00;99.90;;;;;;5075558;28;20465;-51
2022/08/16 04:40:12;;;;;;;7.20;6.60;;;17.00;99.90;;;;;;5085035;28;20467;-51
2022/08/16 04:42:41;;;;;;;8.07;7.27;;;17.00;99.90;;;;;;5095022;28;20453;-53
2022/08/16 04:45:12;;;;;;;7.40;6.80;;;17.00;99.90;;;;;;5075745;28;20500;-52
2022/08/16 04:47:40;;;;;;;6.50;5.90;;;17.00;99.90;;;;;;5095035;28;21035;-50
2022/08/16 04:50:10;;;;;;;6.37;5.77;;;17.00;99.90;;;;;;5097287;28;20543;-52
2022/08/16 04:52:44;;;;;;;7.17;6.03;;;17.00;99.90;;;;;;5097301;28;20471;-54
2022/08/16 04:55:14;;;;;;;7.00;6.37;;;17.10;99.90;;;;;;5095089;28;20460;-50
2022/08/16 04:57:52;;;;;;;7.23;6.60;;;17.10;99.90;;;;;;5093615;28;20457;-51
2022/08/16 05:00:23;;;;;;;7.40;6.10;;;17.00;99.90;;;;;;5094800;28;20928;-49
2022/08/16 05:02:52;;;;;;;7.40;6.77;;;17.00;99.90;;;;;;5092391;28;20518;-56
2022/08/16 05:05:20;;;;;;;7.33;6.63;;;17.00;99.90;;;;;;5095302;28;20464;-49
2022/08/16 05:07:54;;;;;;;7.30;6.60;;;17.10;99.90;;;;;;5091912;28;20467;-48
2022/08/16 05:10:24;;;;;;;7.93;7.13;;;17.10;99.90;;;;;;5094889;28;20459;-54
2022/08/16 05:12:55;;;;;;;6.43;5.83;;;17.10;99.90;;;;;;5093567;28;20495;-54
2022/08/16 05:15:23;;;;;;;6.43;5.83;;;17.20;99.90;;;;;;5095289;28;20453;-49
2022/08/16 05:17:50;;;;;;;6.10;5.60;;;17.30;99.90;;;;;;5094502;28;20565;-56
2022/08/16 05:20:18;;;;;;;6.30;5.80;;;17.40;96.00;;;;;;5095908;28;20819;-52
2022/08/16 05:22:45;;;;;;;8.20;6.07;;;17.50;49.70;;;;;;5095478;28;20556;-51
2022/08/16 05:25:15;;;;;;;6.30;5.70;;;17.50;24.50;;;;;;5095688;28;20877;-56
2022/08/16 05:27:46;;;;;;;6.83;5.93;;;17.60;6.80;;;;;;5092650;28;20460;-57
2022/08/16 05:30:17;;;;;;;6.83;6.23;;;17.60;1.00;;;;;;5095201;28;20452;-56
2022/08/16 05:32:45;;;;;;;7.60;6.80;;;17.70;1.00;;;;;;5094285;28;20465;-54
2022/08/16 05:35:13;;;;;;;9.07;6.33;;;17.80;1.00;;;;;;5092820;28;20583;-51
2022/08/16 05:37:41;;;;;;;6.53;6.00;;;17.90;1.00;;;;;;5094260;28;20512;-53
2022/08/16 05:40:10;;;;;;;6.10;5.60;;;18.00;1.00;;;;;;5094115;28;20865;-52
2022/08/16 05:42:38;;;;;;;8.63;6.77;;;18.00;1.00;;;;;;5094358;28;20464;-51
2022/08/16 05:45:07;;;;;;;7.20;6.60;;;18.10;1.00;;;;;;5096812;28;20514;-50
2022/08/16 05:47:37;;;;;;;7.07;6.03;;;18.10;1.00;;;;;;5096006;28;20456;-54
2022/08/16 05:50:07;;;;;;;7.63;6.80;;;18.30;1.00;;;;;;5093593;28;20464;-51
2022/08/16 05:52:35;;;;;;;6.77;6.17;;;18.40;1.00;;;;;;5093716;28;20495;-51
2022/08/16 05:55:02;;;;;;;7.93;6.13;;;18.50;1.00;;;;;;5096811;28;20882;-49
2022/08/16 05:57:33;;;;;;;6.67;6.07;;;18.60;1.00;;;;;;5097186;28;20776;-50
2022/08/16 06:00:00;;;;;;;6.13;5.60;;;18.60;1.00;;;;;;5099216;28;20960;-51
2022/08/16 06:02:30;;;;;;;6.40;5.80;;;18.80;1.00;;;;;;5096827;28;20463;-50
2022/08/16 06:04:59;;;;;;;7.23;6.00;;;18.90;1.00;;;;;;5098410;28;20808;-51
2022/08/16 06:07:26;;;;;;;6.97;6.37;;;19.00;1.00;;;;;;5097992;28;20456;-50
2022/08/16 06:09:57;;;;;;;8.50;7.10;;;19.10;1.00;;;;;;5098450;28;20832;-50
2022/08/16 06:12:24;;;;;;;6.87;6.27;;;19.20;1.00;;;;;;5097474;28;20472;-50
2022/08/16 06:14:51;;;;;;;7.87;5.80;;;19.40;1.00;;;;;;5098848;28;20439;-54
2022/08/16 06:17:18;;;;;;;6.50;5.90;;;19.60;1.00;;;;;;5099943;28;20471;-51
2022/08/16 06:19:46;;;;;;;6.17;5.57;;;19.90;1.00;;;;;;5100199;28;20467;-50
2022/08/16 06:22:14;;;;;;;5.90;5.40;;;20.10;1.00;;;;;;5099136;28;20441;-50
2022/08/16 06:24:43;;;;;;;5.93;5.43;;;20.40;99.90;;;;;;5097651;28;20877;-48
2022/08/16 06:27:16;;;;;;;6.33;5.37;;;20.60;99.90;;;;;;5084299;28;20864;-49
2022/08/16 06:29:45;;;;;;;6.00;5.50;;;20.80;99.90;;;;;;5088276;28;20457;-51
2022/08/16 06:32:12;;;;;;;6.17;5.57;;;21.10;99.90;;;;;;5095442;28;20495;-49
2022/08/16 06:34:39;;;;;;;5.60;5.10;;;21.40;99.90;;;;;;5095362;28;20492;-50
2022/08/16 06:37:07;;;;;;;5.57;5.10;;;21.60;99.90;;;;;;5097960;28;20488;-53
2022/08/16 06:39:41;;;;;;;6.40;5.80;;;22.00;99.90;;;;;;5095398;28;21022;-53
2022/08/16 06:42:08;;;;;;;5.47;4.90;;;22.20;99.90;;;;;;5098966;28;20828;-52
2022/08/16 06:44:36;;;;;;;7.67;5.40;;;22.50;99.90;;;;;;5098804;28;20781;-49
2022/08/16 06:47:04;;;;;;;5.77;5.20;;;22.70;99.90;;;;;;5098648;28;20555;-49
2022/08/16 06:49:31;;;;;;;7.73;5.93;;;23.00;99.90;;;;;;5095718;28;20926;-52
2022/08/16 06:51:58;;;;;;;6.17;5.57;;;23.20;99.90;;;;;;5098961;28;20501;-50
2022/08/16 06:54:25;;;;;;;5.40;5.00;;;23.30;99.90;;;;;;5102596;28;20475;-53
2022/08/16 06:56:54;;;;;;;6.17;5.57;;;23.50;99.90;;;;;;5097255;28;20776;-53
2022/08/16 06:59:22;;;;;;;4.90;4.30;;;23.60;99.90;;;;;;5097687;28;20622;-53
2022/08/16 07:01:50;;;;;;;5.80;5.20;;;23.60;99.90;;;;;;5097788;28;20745;-53
2022/08/16 07:04:17;;;;;;;5.33;4.93;;;24.00;99.90;;;;;;5098892;28;20491;-52
2022/08/16 07:06:48;;;;;;;6.07;5.50;;;24.20;99.90;;;;;;5097678;28;20779;-53
2022/08/16 07:09:15;;;;;;;5.67;5.10;;;24.30;99.90;;;;;;5097753;28;20460;-51
2022/08/16 07:11:43;;;;;;;6.00;5.33;;;24.40;99.90;;;;;;5097941;28;20529;-50
2022/08/16 07:14:12;;;;;;;6.20;5.70;;;24.60;99.90;;;;;;5098370;28;20494;-53
2022/08/16 07:16:40;;;;;;;6.67;5.93;;;24.60;99.90;;;;;;5097689;28;20586;-54
2022/08/16 07:19:08;;;;;;;5.73;5.20;;;24.70;99.90;;;;;;5098337;28;20950;-52
2022/08/16 07:21:36;;;;;;;5.70;5.30;;;25.00;99.90;;;;;;5097973;28;20817;-57
2022/08/16 07:24:08;;;;;;;6.80;6.10;;;25.20;99.90;;;;;;5098944;28;20893;-56
2022/08/16 07:26:36;;;;;;;6.03;5.53;;;25.30;99.90;;;;;;5097346;28;20464;-54
2022/08/16 07:29:08;;;;;;;6.30;5.80;;;25.20;99.90;;;;;;5098715;28;20460;-50
2022/08/16 07:31:41;;;;;;;6.97;5.37;;;25.30;99.90;;;;;;5097630;28;20509;-55
2022/08/16 07:34:08;;;;;;;6.13;5.43;;;25.60;99.90;;;;;;5098557;28;20559;-54
2022/08/16 07:36:37;;;;;;;5.40;5.00;;;25.70;99.90;;;;;;5098106;28;20494;-51
2022/08/16 07:39:07;;;;;;;6.70;6.20;;;25.30;99.90;;;;;;5095645;28;20555;-54
2022/08/16 07:41:35;;;;;;;5.90;5.50;;;25.30;99.90;;;;;;5097329;28;20742;-55
2022/08/16 07:44:02;;;;;;;6.13;5.63;;;25.70;99.90;;;;;;5098107;28;20464;-54
2022/08/16 07:46:32;;;;;;;6.20;5.70;;;25.90;99.90;;;;;;5097597;28;20493;-54
2022/08/16 07:49:02;;;;;;;5.97;5.57;;;25.90;99.90;;;;;;5097140;28;20954;-54
2022/08/16 07:51:35;;;;;;;6.43;5.77;;;26.20;99.90;;;;;;5097809;28;20456;-55
2022/08/16 07:54:03;;;;;;;6.00;5.40;;;26.50;99.90;;;;;;5078199;28;20829;-56
2022/08/16 07:56:42;;;;;;;5.67;5.27;;;26.60;99.90;;;;;;5085721;28;20488;-50
2022/08/16 07:59:11;;;;;;;6.00;5.50;;;26.80;99.90;;;;;;5097076;28;20460;-51
2022/08/16 08:01:38;;;;;;;5.30;4.90;;;26.80;99.90;;;;;;5097429;28;20467;-51
2022/08/16 08:04:11;;;;;;;5.53;5.03;;;26.70;99.90;;;;;;5097386;28;20465;-50
2022/08/16 08:06:42;;;;;;;6.77;6.10;;;27.00;99.90;;;;;;5098230;28;20460;-50
2022/08/16 08:09:11;;;;;;;5.53;4.90;;;27.40;99.90;;;;;;5096212;28;20553;-55
2022/08/16 08:11:38;;;;;;;5.43;4.57;;;27.40;99.90;;;;;;5096188;28;20465;-52
2022/08/16 08:14:08;;;;;;;6.10;5.60;;;27.60;99.90;;;;;;5095532;28;20501;-49
2022/08/16 08:16:35;;;;;;;5.80;5.40;;;27.80;99.90;;;;;;5096303;28;20913;-57
2022/08/16 08:19:03;;;;;;;5.70;5.30;;;27.50;99.90;;;;;;5096993;28;20463;-54
2022/08/16 08:21:34;;;;;;;5.80;5.40;;;27.70;99.90;;;;;;5096339;28;20521;-52
2022/08/16 08:24:01;;;;;;;5.53;4.90;;;28.00;99.90;;;;;;5097113;28;20470;-50
2022/08/16 08:26:29;;;;;;;5.80;5.30;;;28.30;99.90;;;;;;5097281;28;20816;-51
2022/08/16 08:28:58;;;;;;;7.43;5.10;;;28.70;99.90;;;;;;5095738;28;20468;-51
2022/08/16 08:31:25;;;;;;;5.80;5.23;;;28.70;99.90;;;;;;5095368;28;20978;-54
2022/08/16 08:33:55;;;;;;;6.13;5.63;;;28.70;99.90;;;;;;5096783;28;20466;-55
2022/08/16 08:36:27;;;;;;;6.30;5.70;;;28.70;99.90;;;;;;5097297;28;20514;-57
2022/08/16 08:38:58;;;;;;;5.60;5.20;;;29.00;99.90;;;;;;5097532;28;20465;-52
2022/08/16 08:41:28;;;;;;;5.87;5.37;;;29.30;99.90;;;;;;5096186;28;20468;-54
2022/08/16 08:43:56;;;;;;;6.00;5.40;;;29.50;99.90;;;;;;5077175;28;20819;-58
2022/08/16 08:46:28;;;;;;;5.47;5.00;;;29.60;99.90;;;;;;5076706;28;20909;-57
2022/08/16 08:49:02;;;;;;;7.33;6.13;;;29.70;99.90;;;;;;5077470;28;20457;-55
2022/08/16 08:51:30;;;;;;;6.10;5.70;;;30.10;99.90;;;;;;5090092;28;20531;-56
2022/08/16 08:53:59;;;;;;;5.43;5.00;;;30.10;99.90;;;;;;5097368;28;20460;-53
2022/08/16 08:56:29;;;;;;;5.90;5.40;;;30.30;99.90;;;;;;5096913;28;20480;-57
2022/08/16 08:58:56;;;;;;;5.37;4.87;;;30.30;99.90;;;;;;5097292;28;20468;-55
2022/08/16 09:01:29;;;;;;;7.03;5.67;;;30.60;99.90;;;;;;5096594;28;20442;-54
2022/08/16 09:03:56;;;;;;;6.40;5.70;;;29.90;99.90;;;;;;5097465;28;20901;-52
2022/08/16 09:06:24;;;;;;;5.37;4.97;;;29.80;99.90;;;;;;5097005;28;20575;-56
2022/08/16 09:08:51;;;;;;;6.00;5.60;;;30.20;99.90;;;;;;5097189;28;20464;-56
2022/08/16 09:11:24;;;;;;;6.30;5.80;;;30.40;99.90;;;;;;5096639;28;20487;-59
2022/08/16 09:13:54;;;;;;;6.90;6.37;;;30.60;99.90;;;;;;5096567;28;20460;-54
2022/08/16 09:16:30;;;;;;;5.10;4.70;;;30.40;99.90;;;;;;5095090;28;20500;-58
2022/08/16 09:18:59;;;;;;;6.33;5.90;;;30.50;99.90;;;;;;5097230;28;20452;-56
2022/08/16 09:21:31;;;;;;;6.37;5.87;;;30.40;99.90;;;;;;5096463;28;20456;-52
2022/08/16 09:23:58;;;;;;;6.67;6.17;;;30.80;99.90;;;;;;5096989;28;20498;-55
2022/08/16 09:26:29;;;;;;;5.50;5.10;;;30.70;99.90;;;;;;5096548;28;20456;-57
2022/08/16 09:28:59;;;;;;;5.97;5.47;;;30.40;99.90;;;;;;5097628;28;20756;-51
2022/08/16 09:31:26;;;;;;;6.00;5.50;;;31.00;99.90;;;;;;5095883;28;20559;-56
2022/08/16 09:33:53;;;;;;;6.07;5.60;;;31.50;99.90;;;;;;5099206;28;20765;-53
2022/08/16 09:36:21;;;;;;;6.63;6.23;;;31.70;99.90;;;;;;5100643;28;20570;-52
2022/08/16 09:38:49;;;;;;;6.83;6.13;;;31.80;99.90;;;;;;5081890;28;20542;-55
2022/08/16 09:41:17;;;;;;;6.67;5.20;;;31.80;99.90;;;;;;5080181;28;20464;-56
2022/08/16 09:43:45;;;;;;;5.30;4.80;;;31.70;99.90;;;;;;5092969;28;20464;-52
2022/08/16 09:46:16;;;;;;;6.10;5.70;;;32.20;99.90;;;;;;5100207;28;20460;-54
2022/08/16 09:48:43;;;;;;;6.60;6.13;;;31.40;99.90;;;;;;5100185;28;20471;-58
2022/08/16 09:51:12;;;;;;;5.97;5.37;;;30.50;99.90;;;;;;5087377;28;20505;-53
2022/08/16 09:53:42;;;;;;;6.60;6.00;;;31.20;99.90;;;;;;5088027;28;20482;-54
2022/08/16 09:56:19;;;;;;;6.80;6.30;;;31.50;99.90;;;;;;5099977;28;20471;-56
2022/08/16 09:58:49;;;;;;;6.60;6.03;;;31.50;99.90;;;;;;5099996;28;20494;-55
2022/08/16 10:01:17;;;;;;;6.03;5.57;;;31.00;99.90;;;;;;5100733;28;20466;-57
2022/08/16 10:03:45;;;;;;;6.40;5.90;;;30.60;99.90;;;;;;5099845;28;20525;-58
2022/08/16 10:06:12;;;;;;;5.50;5.00;;;31.20;99.90;;;;;;5100194;28;20460;-54
2022/08/16 10:08:39;;;;;;;6.73;6.13;;;31.50;99.90;;;;;;5098042;28;20558;-50
2022/08/16 10:13:59;;;;;;;7.50;6.40;;;32.10;99.90;;;;;;5094621;28;20442;-53
2022/08/16 10:16:29;;;;;;;6.57;6.07;;;31.90;99.90;;;;;;5099598;28;20492;-58
2022/08/16 10:19:04;;;;;;;6.20;5.70;;;31.20;99.90;;;;;;5099034;28;20494;-55
2022/08/16 10:21:32;;;;;;;8.33;5.30;;;31.90;99.90;;;;;;5099108;28;20736;-55
2022/08/16 10:23:59;;;;;;;7.77;5.70;;;32.40;99.90;;;;;;5099191;28;20459;-57
2022/08/16 10:26:27;;;;;;;5.80;5.30;;;32.70;99.90;;;;;;5098995;28;20947;-52
2022/08/16 10:29:00;;;;;;;5.70;5.20;;;33.00;99.90;;;;;;5096413;28;20503;-53
2022/08/16 10:31:28;;;;;;;5.83;5.43;;;33.40;99.90;;;;;;5098644;28;20445;-54
2022/08/16 10:33:56;;;;;;;5.63;5.10;;;33.50;99.90;;;;;;5097771;28;20487;-56
2022/08/16 10:36:24;;;;;;;5.77;5.33;;;33.60;99.90;;;;;;5097086;28;20463;-55
2022/08/16 10:38:51;;;;;;;6.40;5.47;;;33.30;99.90;;;;;;5095596;28;20593;-59
2022/08/16 10:41:19;;;;;;;8.20;6.10;;;33.40;99.90;;;;;;5099403;28;20460;-59
2022/08/16 10:43:47;;;;;;;6.47;5.90;;;33.00;99.90;;;;;;5097582;28;20464;-57
2022/08/16 10:46:17;;;;;;;5.67;5.27;;;33.20;99.90;;;;;;5098326;28;20491;-55
2022/08/16 10:48:46;;;;;;;6.93;6.33;;;33.20;99.90;;;;;;5099267;28;20551;-58
2022/08/16 10:51:20;;;;;;;6.13;5.63;;;33.40;99.90;;;;;;5099319;28;20766;-53
2022/08/16 10:53:52;;;;;;;16.40;6.77;;;33.40;99.90;;;;;;5099325;28;20948;-55
2022/08/16 10:56:20;;;;;;;7.37;5.67;;;34.20;99.90;;;;;;5098217;28;20920;-58
2022/08/16 10:58:47;;;;;;;5.80;5.37;;;33.90;99.90;;;;;;5098411;28;20490;-58
2022/08/16 11:01:28;;;;;;;5.53;5.13;;;34.30;99.90;;;;;;5098628;28;20431;-58
2022/08/16 11:03:56;;;;;;;6.10;5.60;;;34.30;99.90;;;;;;5097586;28;20460;-58
2022/08/16 11:06:29;;;;;;;6.70;6.20;;;34.40;99.90;;;;;;5097794;28;20460;-57
2022/08/16 11:08:56;;;;;;;5.47;4.97;;;34.80;99.90;;;;;;5098565;28;20456;-56
2022/08/16 11:11:25;;;;;;;6.00;5.47;;;34.60;99.90;;;;;;5097916;28;20883;-55
2022/08/16 11:13:55;;;;;;;5.33;4.93;;;34.80;99.90;;;;;;5098730;28;20470;-59
2022/08/16 11:16:28;;;;;;;5.77;5.20;;;34.90;99.90;;;;;;5098131;28;20989;-58
2022/08/16 11:18:56;;;;;;;5.30;4.90;;;35.10;99.90;;;;;;5078354;28;20499;-55
2022/08/16 11:21:24;;;;;;;5.17;4.73;;;35.30;99.90;;;;;;5085141;28;20953;-55
2022/08/16 11:23:52;;;;;;;6.13;5.63;;;35.40;99.90;;;;;;5088238;28;20845;-59
2022/08/16 11:26:21;;;;;;;6.15;5.75;;;35.30;99.90;;;;;;5087551;28;20510;-59
2022/08/16 11:28:49;;;;;;;6.20;5.70;;;35.50;99.90;;;;;;5096523;28;20205;-55
2022/08/16 11:31:17;;;;;;;5.60;4.50;;;35.60;99.90;;;;;;5093695;28;20471;-59
2022/08/16 11:33:52;;;;;;;5.50;5.03;;;35.50;99.90;;;;;;5093054;28;20766;-56
2022/08/16 11:36:23;;;;;;;5.27;4.87;;;35.40;99.90;;;;;;5095143;28;20468;-59
2022/08/16 11:38:52;;;;;;;5.03;4.63;;;35.20;99.90;;;;;;5095208;28;20928;-54
2022/08/16 11:41:20;;;;;;;8.03;4.67;;;34.50;99.90;;;;;;5092164;28;21080;-58
2022/08/16 11:43:47;;;;;;;6.00;4.93;;;34.40;99.90;;;;;;5094796;28;20434;-53
2022/08/16 11:46:19;;;;;;;5.23;4.87;;;34.80;99.90;;;;;;5094802;28;20486;-56
2022/08/16 11:48:50;;;;;;;6.50;5.90;;;35.10;99.90;;;;;;5093598;28;20850;-56
2022/08/16 11:51:17;;;;;;;5.73;5.23;;;33.30;99.90;;;;;;5096123;28;20888;-56
2022/08/16 11:53:45;;;;;;;6.47;5.97;;;33.00;99.90;;;;;;5093771;28;20906;-55
2022/08/16 11:56:12;;;;;;;5.23;4.83;;;34.30;99.90;;;;;;5094424;28;20525;-57
2022/08/16 11:58:39;;;;;;;5.83;5.43;;;35.10;99.90;;;;;;5094764;28;20522;-57
2022/08/16 12:01:08;;;;;;;6.53;5.63;;;35.20;99.90;;;;;;5095469;28;20540;-60
2022/08/16 12:03:38;;;;;;;6.40;5.80;;;34.80;99.90;;;;;;5094261;28;20724;-60
2022/08/16 12:06:14;;;;;;;5.87;5.47;;;35.00;99.90;;;;;;5094991;28;20858;-56
2022/08/16 12:08:47;;;;;;;22.70;7.10;;;35.20;99.90;;;;;;5094686;28;20422;-57
2022/08/16 12:11:18;;;;;;;13.10;6.23;;;35.50;99.90;;;;;;5096414;28;20470;-55
2022/08/16 12:13:48;;;;;;;6.20;5.60;;;35.50;99.90;;;;;;5096421;28;20777;-59
2022/08/16 12:16:24;;;;;;;5.20;4.70;;;35.60;99.90;;;;;;5094987;28;20466;-53
2022/08/16 12:18:56;;;;;;;6.37;5.87;;;35.10;99.90;;;;;;5096912;28;20724;-59
2022/08/16 12:21:27;;;;;;;6.18;5.68;;;34.90;99.90;;;;;;5096881;28;20625;-51
2022/08/16 12:23:55;;;;;;;6.63;6.10;;;34.60;99.90;;;;;;5096785;28;20206;-55
2022/08/16 12:26:28;;;;;;;6.70;6.00;;;33.90;99.90;;;;;;5096980;28;20491;-56
2022/08/16 12:28:55;;;;;;;6.30;5.80;;;33.20;99.90;;;;;;5096882;28;20479;-55
2022/08/16 12:31:26;;;;;;;6.40;5.90;;;32.40;99.90;;;;;;5096295;28;20513;-54
2022/08/16 12:33:53;;;;;;;5.97;5.57;;;33.00;99.90;;;;;;5097001;28;20455;-54
2022/08/16 12:36:23;;;;;;;6.40;5.83;;;33.70;99.90;;;;;;5097452;28;20562;-55
2022/08/16 12:38:58;;;;;;;6.97;6.37;;;33.70;99.90;;;;;;5097437;28;20487;-56
2022/08/16 12:41:31;;;;;;;6.37;5.87;;;34.10;99.90;;;;;;5096626;28;20547;-53
2022/08/16 12:44:03;;;;;;;5.70;5.20;;;34.30;99.90;;;;;;5097269;28;20505;-56
2022/08/16 12:46:31;;;;;;;5.97;5.43;;;34.50;99.90;;;;;;5097298;28;20471;-53
2022/08/16 12:49:05;;;;;;;5.90;5.40;;;34.50;99.90;;;;;;5097481;28;20459;-52
2022/08/16 12:51:37;;;;;;;10.50;5.60;;;34.10;99.90;;;;;;5095837;28;20435;-58
2022/08/16 12:54:08;;;;;;;5.70;5.20;;;33.60;99.90;;;;;;5096323;28;20558;-54
2022/08/16 12:56:38;;;;;;;5.37;5.00;;;33.30;99.90;;;;;;5093871;28;20768;-57
2022/08/16 12:59:11;;;;;;;6.97;6.10;;;33.00;99.90;;;;;;5096469;28;20752;-56
2022/08/16 13:01:44;;;;;;;6.23;5.63;;;32.20;99.90;;;;;;5095134;28;20460;-52
2022/08/16 13:04:12;;;;;;;6.17;5.67;;;32.30;99.90;;;;;;5096184;28;20463;-58